Time;durP1;ratioP1;P1;durP2;ratioP2;P2;SDS_P1;SDS_P2;PMS_P1;PMS_P2;Temp;Humidity;BMP_temperature;BMP_pressure;BME280_temperature;BME280_humidity;BME280_pressure;Samples;Min_cycle;Max_cycle;Signal;HPM_P1;HPM_P2
2022/08/24 00:01:15;;;;;;;0.00;0.00;;;17.00;52.40;;;;;;5101001;28;20020;-73
2022/08/24 00:03:42;;;;;;;4.82;4.63;;;16.80;53.50;;;;;;5102378;28;20023;-73
2022/08/24 00:06:11;;;;;;;0.00;0.00;;;16.80;53.30;;;;;;5104770;28;20020;-73
2022/08/24 00:08:39;;;;;;;6.38;3.75;;;16.80;53.70;;;;;;5104639;28;20020;-73
2022/08/24 00:11:06;;;;;;;0.00;0.00;;;16.90;53.50;;;;;;5105179;28;20103;-73
2022/08/24 00:13:33;;;;;;;0.00;0.00;;;16.90;54.00;;;;;;5103539;28;20032;-73
2022/08/24 00:15:59;;;;;;;0.00;0.00;;;16.80;54.20;;;;;;5101259;28;20058;-74
2022/08/24 00:18:26;;;;;;;0.30;0.30;;;16.90;53.90;;;;;;5100031;28;20123;-74
2022/08/24 00:20:52;;;;;;;0.00;0.00;;;16.90;53.50;;;;;;5097741;28;20035;-73
2022/08/24 00:23:18;;;;;;;0.10;0.10;;;17.00;54.00;;;;;;5100730;28;20024;-73
2022/08/24 00:25:44;;;;;;;0.10;0.10;;;17.10;52.50;;;;;;5104158;28;20024;-73
2022/08/24 00:28:10;;;;;;;0.00;0.00;;;17.30;52.10;;;;;;5101728;28;20064;-73
2022/08/24 00:30:37;;;;;;;0.00;0.00;;;17.40;51.80;;;;;;5105709;28;20419;-73
2022/08/24 00:33:03;;;;;;;0.10;0.10;;;17.40;51.50;;;;;;5107289;28;20570;-73
2022/08/24 00:35:30;;;;;;;0.00;0.00;;;17.20;52.90;;;;;;5106121;28;20232;-74
2022/08/24 00:37:56;;;;;;;0.00;0.00;;;17.10;53.70;;;;;;5113180;28;20157;-73
2022/08/24 00:40:24;;;;;;;0.10;0.10;;;17.10;53.50;;;;;;5113036;28;20148;-73
2022/08/24 00:42:51;;;;;;;0.00;0.00;;;17.10;54.30;;;;;;5103054;27;20110;-72
2022/08/24 00:45:19;;;;;;;0.00;0.00;;;17.10;54.50;;;;;;5105128;27;20043;-74
2022/08/24 00:47:49;;;;;;;0.00;0.00;;;17.20;53.70;;;;;;5096633;28;20020;-73
2022/08/24 00:50:58;;;;;;;3.22;3.00;;;17.30;53.70;;;;;;5099840;28;20023;-74
2022/08/24 00:53:36;;;;;;;0.00;0.00;;;17.30;54.00;;;;;;5097346;28;20024;-73
2022/08/24 00:56:10;;;;;;;0.00;0.00;;;17.30;54.00;;;;;;5104787;28;20020;-73
2022/08/24 00:58:49;;;;;;;0.00;0.00;;;17.40;54.50;;;;;;5105728;28;20493;-73
2022/08/24 01:01:16;;;;;;;0.88;0.88;;;17.40;53.90;;;;;;5104940;28;20038;-73
2022/08/24 01:03:45;;;;;;;0.00;0.00;;;17.50;54.60;;;;;;5100863;28;20076;-73
2022/08/24 01:06:12;;;;;;;0.00;0.00;;;17.50;54.00;;;;;;5109142;28;20028;-73
2022/08/24 01:08:39;;;;;;;0.00;0.00;;;17.50;54.00;;;;;;5105309;28;20051;-73
2022/08/24 01:11:19;;;;;;;0.00;0.00;;;17.50;54.10;;;;;;5102669;28;20541;-72
2022/08/24 01:13:48;;;;;;;0.00;0.00;;;17.70;53.60;;;;;;5106931;28;20471;-73
2022/08/24 01:19:06;;;;;;;2.47;2.28;;;17.90;53.40;;;;;;5103326;28;20066;-72
2022/08/24 01:21:56;;;;;;;0.00;0.00;;;18.10;53.90;;;;;;5109711;28;20034;-72
2022/08/24 01:24:22;;;;;;;0.00;0.00;;;18.00;53.50;;;;;;5102041;28;20024;-72
2022/08/24 01:26:49;;;;;;;0.00;0.00;;;18.00;54.20;;;;;;5105438;28;20496;-73
2022/08/24 01:29:19;;;;;;;0.00;0.00;;;18.10;53.50;;;;;;5108008;28;20039;-73
2022/08/24 01:31:46;;;;;;;0.00;0.00;;;18.10;53.90;;;;;;5111058;28;20029;-73
2022/08/24 01:34:12;;;;;;;0.00;0.00;;;18.20;54.00;;;;;;5111337;28;20033;-74
2022/08/24 01:36:46;;;;;;;0.93;0.93;;;18.40;52.60;;;;;;5102524;28;20028;-74
2022/08/24 01:39:21;;;;;;;0.00;0.00;;;18.50;52.50;;;;;;5104218;28;20066;-74
2022/08/24 01:41:47;;;;;;;0.00;0.00;;;18.70;52.20;;;;;;5101860;28;20059;-74
2022/08/24 01:44:14;;;;;;;0.00;0.00;;;18.80;51.10;;;;;;5100904;28;20059;-73
2022/08/24 01:46:45;;;;;;;0.00;0.00;;;19.00;48.40;;;;;;5103580;28;20027;-74
2022/08/24 01:49:12;;;;;;;0.00;0.00;;;19.30;46.80;;;;;;5104582;28;20118;-74
2022/08/24 01:51:38;;;;;;;0.00;0.00;;;19.60;47.00;;;;;;5107562;28;20027;-74
2022/08/24 01:54:05;;;;;;;2.55;2.45;;;19.80;45.70;;;;;;5107717;28;20023;-73
2022/08/24 01:56:32;;;;;;;0.00;0.00;;;19.90;44.20;;;;;;5110945;28;20020;-73
2022/08/24 01:59:00;;;;;;;0.20;0.20;;;20.10;43.60;;;;;;5105701;28;20501;-73
2022/08/24 02:01:30;;;;;;;2.50;2.40;;;20.20;42.90;;;;;;5109701;28;20118;-72
2022/08/24 02:03:59;;;;;;;0.32;0.32;;;20.60;42.70;;;;;;5107461;28;20028;-73
2022/08/24 02:06:26;;;;;;;0.00;0.00;;;21.10;42.50;;;;;;5100482;28;20358;-75
2022/08/24 02:08:52;;;;;;;0.80;0.80;;;21.50;40.80;;;;;;5099216;28;20027;-75
2022/08/24 02:11:18;;;;;;;0.10;0.10;;;22.20;40.40;;;;;;5100049;28;20020;-73
2022/08/24 02:13:44;;;;;;;2.05;1.95;;;22.70;38.50;;;;;;5098602;28;20023;-74
2022/08/24 02:16:11;;;;;;;0.00;0.00;;;23.20;37.70;;;;;;5103035;28;20084;-74
2022/08/24 02:18:40;;;;;;;3.00;2.72;;;23.40;36.60;;;;;;5108296;28;20338;-74
2022/08/24 02:21:11;;;;;;;2.22;2.13;;;23.30;36.70;;;;;;5103578;28;20032;-73
2022/08/24 02:23:39;;;;;;;0.00;0.00;;;23.20;36.80;;;;;;5103735;28;20027;-73
2022/08/24 02:26:07;;;;;;;2.20;2.08;;;22.90;37.50;;;;;;5109799;28;20036;-73
2022/08/24 02:28:34;;;;;;;0.00;0.00;;;22.80;37.50;;;;;;5113175;27;20393;-73
2022/08/24 02:31:03;;;;;;;0.03;0.03;;;22.40;38.30;;;;;;5115606;28;20024;-73
2022/08/24 02:33:29;;;;;;;0.00;0.00;;;22.10;38.90;;;;;;5109936;28;20580;-74
2022/08/24 02:35:55;;;;;;;0.00;0.00;;;22.20;38.70;;;;;;5113513;27;20027;-74
2022/08/24 02:38:22;;;;;;;0.00;0.00;;;22.30;38.40;;;;;;5110214;27;20458;-74
2022/08/24 02:40:48;;;;;;;0.00;0.00;;;22.90;37.20;;;;;;5106740;27;20020;-73
2022/08/24 02:43:15;;;;;;;0.60;0.60;;;23.70;35.40;;;;;;5109207;28;20031;-74
2022/08/24 02:45:44;;;;;;;1.77;1.75;;;24.60;34.30;;;;;;5114592;27;20054;-73
2022/08/24 02:48:12;;;;;;;2.55;2.40;;;25.10;33.40;;;;;;5101496;28;20059;-74
2022/08/24 02:50:45;;;;;;;0.13;0.13;;;25.60;32.40;;;;;;5103040;27;20527;-73
2022/08/24 02:53:13;;;;;;;0.00;0.00;;;25.90;31.80;;;;;;5098476;27;20060;-73
2022/08/24 02:55:41;;;;;;;0.22;0.22;;;26.40;31.40;;;;;;5100629;28;20042;-74
2022/08/24 02:58:10;;;;;;;6.03;0.52;;;26.80;30.80;;;;;;5102751;28;20054;-74
2022/08/24 03:00:38;;;;;;;5.05;3.50;;;26.90;30.10;;;;;;5096487;28;20024;-74
2022/08/24 03:03:05;;;;;;;1.05;1.00;;;27.10;30.10;;;;;;5103822;28;20024;-74
2022/08/24 03:05:32;;;;;;;0.52;0.52;;;27.10;30.20;;;;;;5100083;28;20068;-75
2022/08/24 03:07:58;;;;;;;0.00;0.00;;;26.90;30.10;;;;;;5099084;27;20044;-74
2022/08/24 03:10:25;;;;;;;0.00;0.00;;;26.40;30.80;;;;;;5104707;27;20331;-72
2022/08/24 03:12:54;;;;;;;0.00;0.00;;;26.10;31.20;;;;;;5100411;27;20097;-75
2022/08/24 03:15:21;;;;;;;0.00;0.00;;;25.60;31.20;;;;;;5101442;28;20024;-73
2022/08/24 03:17:48;;;;;;;2.20;2.10;;;25.50;31.20;;;;;;5105810;27;20447;-73
2022/08/24 03:20:17;;;;;;;1.25;1.25;;;25.30;31.20;;;;;;5099342;28;20016;-73
2022/08/24 03:22:45;;;;;;;6.03;3.90;;;25.20;31.30;;;;;;5100367;28;20485;-72
2022/08/24 03:25:11;;;;;;;2.35;2.30;;;25.00;31.50;;;;;;5104908;28;20032;-74
2022/08/24 03:27:37;;;;;;;0.47;0.47;;;25.10;30.90;;;;;;5101745;27;20022;-75
2022/08/24 03:30:06;;;;;;;0.00;0.00;;;24.80;31.30;;;;;;5106913;28;20030;-73
2022/08/24 03:32:32;;;;;;;0.20;0.15;;;24.70;31.30;;;;;;5103052;27;20032;-73
2022/08/24 03:34:58;;;;;;;0.10;0.10;;;24.70;32.20;;;;;;5105250;27;20023;-74
2022/08/24 03:37:24;;;;;;;0.00;0.00;;;24.60;31.90;;;;;;5101983;27;20532;-73
2022/08/24 03:39:50;;;;;;;0.00;0.00;;;24.40;32.30;;;;;;5107875;27;20046;-73
2022/08/24 03:42:17;;;;;;;0.00;0.00;;;24.30;32.00;;;;;;5104544;27;20032;-72
2022/08/24 03:44:43;;;;;;;0.00;0.00;;;24.40;31.70;;;;;;5108285;27;20024;-73
2022/08/24 03:47:10;;;;;;;0.00;0.00;;;24.30;32.10;;;;;;5110086;27;20073;-75
2022/08/24 03:49:37;;;;;;;0.00;0.00;;;24.40;32.30;;;;;;5107475;28;20072;-73
2022/08/24 03:52:05;;;;;;;0.00;0.00;;;24.50;32.40;;;;;;5102009;28;20369;-74
2022/08/24 03:54:31;;;;;;;0.08;0.08;;;24.40;32.00;;;;;;5098271;28;20427;-74
2022/08/24 03:56:57;;;;;;;0.13;0.13;;;24.30;32.80;;;;;;5101990;27;20068;-75
2022/08/24 03:59:24;;;;;;;0.00;0.00;;;23.90;34.30;;;;;;5100277;28;20128;-75
2022/08/24 04:01:50;;;;;;;0.10;0.10;;;23.90;34.90;;;;;;5120998;27;20031;-74
2022/08/24 04:04:17;;;;;;;0.00;0.00;;;24.00;34.60;;;;;;5102180;28;20527;-73
2022/08/24 04:06:45;;;;;;;0.28;0.28;;;24.00;34.30;;;;;;5107437;27;20118;-73
2022/08/24 04:09:12;;;;;;;22.58;2.80;;;24.40;34.00;;;;;;5103905;28;20099;-75
2022/08/24 04:11:39;;;;;;;0.00;0.00;;;24.20;34.60;;;;;;5106745;27;20107;-73
2022/08/24 04:14:07;;;;;;;0.75;0.52;;;24.20;34.40;;;;;;5108457;27;20027;-74
2022/08/24 04:16:33;;;;;;;1.63;0.77;;;24.40;35.00;;;;;;5102290;27;20073;-73
2022/08/24 04:18:59;;;;;;;0.22;0.22;;;24.30;37.30;;;;;;5101308;27;20035;-73
2022/08/24 04:21:28;;;;;;;6.13;1.02;;;24.20;39.30;;;;;;5104479;27;20959;-72
2022/08/24 04:23:55;;;;;;;1.70;1.60;;;24.00;40.20;;;;;;5097534;28;20157;-74
2022/08/24 04:26:23;;;;;;;0.30;0.30;;;23.90;39.90;;;;;;5098922;27;20032;-74
2022/08/24 04:28:50;;;;;;;0.00;0.00;;;23.80;41.80;;;;;;5100462;28;20031;-74
2022/08/24 04:31:18;;;;;;;4.15;1.33;;;23.80;41.70;;;;;;5104301;27;20019;-76
2022/08/24 04:33:46;;;;;;;0.00;0.00;;;24.00;41.10;;;;;;5097055;27;20028;-74
2022/08/24 04:36:12;;;;;;;2.72;2.40;;;23.60;41.30;;;;;;5096210;27;20031;-75
2022/08/24 04:38:39;;;;;;;0.90;0.90;;;23.80;41.50;;;;;;5103252;27;20019;-73
2022/08/24 04:41:11;;;;;;;0.00;0.00;;;24.00;40.50;;;;;;5105401;28;20019;-75
2022/08/24 04:43:38;;;;;;;0.17;0.17;;;24.30;39.60;;;;;;5098272;27;20069;-74
2022/08/24 04:46:06;;;;;;;1.60;1.23;;;24.20;40.10;;;;;;5104207;27;20027;-74
2022/08/24 04:48:33;;;;;;;3.80;3.50;;;24.30;39.40;;;;;;5102741;27;20074;-74
2022/08/24 04:51:06;;;;;;;0.40;0.32;;;24.30;39.20;;;;;;5102900;27;20035;-75
2022/08/24 04:53:33;;;;;;;1.67;1.02;;;24.30;40.30;;;;;;5095993;27;20030;-75
2022/08/24 04:55:59;;;;;;;0.17;0.17;;;24.20;38.80;;;;;;5097448;27;20016;-73
2022/08/24 04:58:28;;;;;;;0.32;0.13;;;24.10;38.70;;;;;;5102244;28;20547;-75
2022/08/24 05:00:55;;;;;;;0.00;0.00;;;24.50;39.50;;;;;;5104391;27;20036;-74
2022/08/24 05:03:22;;;;;;;1.85;1.75;;;24.40;39.00;;;;;;5104467;27;20038;-74
2022/08/24 05:05:50;;;;;;;0.00;0.00;;;24.60;37.40;;;;;;5094995;28;20619;-74
2022/08/24 05:08:18;;;;;;;0.20;0.20;;;24.80;35.90;;;;;;5102360;27;20109;-75
2022/08/24 05:10:47;;;;;;;0.15;0.15;;;24.90;35.60;;;;;;5098161;27;21541;-74
2022/08/24 05:13:16;;;;;;;0.52;0.38;;;24.90;35.10;;;;;;5099722;27;20111;-74
2022/08/24 05:15:47;;;;;;;0.28;0.28;;;25.00;35.40;;;;;;5103627;28;20029;-74
2022/08/24 05:18:16;;;;;;;0.30;0.30;;;24.60;37.20;;;;;;5097564;27;20027;-73
2022/08/24 05:20:45;;;;;;;0.57;0.55;;;24.60;36.90;;;;;;5100478;27;20036;-75
2022/08/24 05:23:12;;;;;;;0.00;0.00;;;24.70;36.90;;;;;;5104478;27;20399;-74
2022/08/24 05:25:39;;;;;;;0.00;0.00;;;24.90;35.90;;;;;;5103473;27;20077;-75
2022/08/24 05:28:06;;;;;;;0.00;0.00;;;25.30;36.10;;;;;;5103284;28;20039;-74
2022/08/24 05:30:32;;;;;;;0.32;0.20;;;25.40;35.60;;;;;;5097353;28;20036;-72
2022/08/24 05:32:58;;;;;;;1.60;0.98;;;25.50;37.40;;;;;;5098792;28;20026;-73
2022/08/24 05:35:25;;;;;;;0.00;0.00;;;25.40;35.10;;;;;;5099954;27;20055;-73
2022/08/24 05:37:51;;;;;;;0.00;0.00;;;25.30;34.30;;;;;;5095618;27;20016;-75
2022/08/24 05:40:19;;;;;;;0.00;0.00;;;25.30;33.80;;;;;;5102202;27;20595;-74
2022/08/24 05:42:47;;;;;;;0.00;0.00;;;25.70;32.30;;;;;;5100570;28;20393;-74
2022/08/24 05:45:13;;;;;;;17.35;15.60;;;25.90;32.20;;;;;;5101882;28;20058;-75
2022/08/24 05:47:39;;;;;;;0.00;0.00;;;26.00;32.70;;;;;;5097925;28;20032;-74
2022/08/24 05:50:06;;;;;;;6.95;1.38;;;26.00;32.60;;;;;;5094843;28;20024;-74
2022/08/24 05:52:34;;;;;;;4.28;2.97;;;26.00;33.10;;;;;;5100744;28;20038;-74
2022/08/24 05:55:01;;;;;;;0.88;0.88;;;26.00;33.40;;;;;;5091209;28;20377;-74
2022/08/24 05:57:32;;;;;;;0.38;0.20;;;25.70;33.00;;;;;;5098006;28;20027;-73
2022/08/24 05:59:58;;;;;;;0.00;0.00;;;25.70;33.50;;;;;;5094208;28;20611;-73
2022/08/24 06:02:25;;;;;;;0.00;0.00;;;25.90;33.20;;;;;;5097909;28;20024;-74
2022/08/24 06:04:51;;;;;;;0.00;0.00;;;26.00;32.50;;;;;;5099243;28;20028;-75
2022/08/24 06:07:17;;;;;;;0.00;0.00;;;26.20;32.90;;;;;;5091787;28;20486;-75
2022/08/24 06:09:44;;;;;;;0.00;0.00;;;26.50;31.00;;;;;;5094214;28;20113;-73
2022/08/24 06:12:13;;;;;;;0.10;0.03;;;26.10;31.40;;;;;;5094799;28;20488;-74
2022/08/24 06:14:43;;;;;;;1.35;0.20;;;26.30;31.30;;;;;;5096625;28;20035;-75
2022/08/24 06:17:13;;;;;;;0.00;0.00;;;26.30;29.70;;;;;;5091235;28;20542;-72
2022/08/24 06:19:39;;;;;;;0.00;0.00;;;26.30;30.00;;;;;;5096191;28;20043;-75
2022/08/24 06:22:06;;;;;;;0.10;0.10;;;26.20;29.70;;;;;;5093302;28;20059;-72
2022/08/24 06:27:37;;;;;;;0.22;0.22;;;25.80;31.10;;;;;;5097527;28;20108;-74
2022/08/24 06:30:08;;;;;;;0.28;0.28;;;26.00;29.90;;;;;;5098211;28;20050;-74
2022/08/24 06:32:36;;;;;;;2.40;0.50;;;26.10;30.20;;;;;;5096825;28;20043;-76
2022/08/24 06:35:02;;;;;;;0.20;0.20;;;26.20;31.40;;;;;;5092648;28;20039;-75
2022/08/24 06:37:28;;;;;;;0.00;0.00;;;26.20;31.00;;;;;;5095101;28;21418;-75
2022/08/24 06:39:56;;;;;;;0.43;0.35;;;26.20;30.70;;;;;;5098129;28;20031;-74
2022/08/24 06:42:28;;;;;;;0.52;0.52;;;26.20;31.50;;;;;;5097800;28;20039;-75
2022/08/24 06:44:54;;;;;;;0.00;0.00;;;26.20;31.80;;;;;;5097280;28;20477;-74
2022/08/24 06:47:21;;;;;;;0.00;0.00;;;26.30;30.90;;;;;;5098253;28;20039;-75
2022/08/24 06:49:47;;;;;;;0.35;0.35;;;26.20;30.40;;;;;;5103568;28;20046;-74
2022/08/24 06:52:13;;;;;;;0.00;0.00;;;26.20;31.80;;;;;;5099812;28;20101;-73
2022/08/24 06:54:40;;;;;;;0.00;0.00;;;26.20;31.80;;;;;;5097941;28;20028;-75
2022/08/24 06:57:14;;;;;;;0.00;0.00;;;26.30;33.20;;;;;;5102542;28;20150;-74
2022/08/24 06:59:41;;;;;;;3.08;1.65;;;26.40;34.70;;;;;;5098468;28;20047;-73
2022/08/24 07:02:08;;;;;;;0.77;0.73;;;26.20;34.80;;;;;;5095809;28;20034;-75
2022/08/24 07:04:34;;;;;;;0.00;0.00;;;26.10;34.50;;;;;;5098822;28;20035;-75
2022/08/24 07:07:00;;;;;;;1.10;0.10;;;26.30;35.20;;;;;;5098865;28;20585;-75
2022/08/24 07:09:29;;;;;;;0.00;0.00;;;26.10;34.90;;;;;;5098942;28;20056;-75
2022/08/24 07:11:56;;;;;;;0.00;0.00;;;26.10;35.70;;;;;;5095422;28;20024;-75
2022/08/24 07:14:22;;;;;;;0.20;0.20;;;26.10;36.00;;;;;;5097924;28;20035;-76
2022/08/24 07:16:48;;;;;;;0.55;0.10;;;26.30;35.90;;;;;;5094337;28;20111;-73
2022/08/24 07:19:14;;;;;;;0.00;0.00;;;26.40;34.60;;;;;;5098702;28;20173;-75
2022/08/24 07:21:41;;;;;;;0.20;0.20;;;26.40;33.70;;;;;;5095380;28;20024;-74
2022/08/24 07:24:07;;;;;;;0.00;0.00;;;26.60;33.40;;;;;;5098188;28;20482;-74
2022/08/24 07:26:34;;;;;;;0.00;0.00;;;26.60;32.50;;;;;;5097174;28;20046;-76
2022/08/24 07:29:06;;;;;;;0.43;0.43;;;26.70;33.30;;;;;;5101008;28;20110;-77
2022/08/24 07:31:37;;;;;;;0.00;0.00;;;26.80;33.00;;;;;;5094919;28;20031;-73
2022/08/24 07:34:05;;;;;;;0.00;0.00;;;26.70;33.50;;;;;;5092379;28;20012;-74
2022/08/24 07:36:31;;;;;;;3.25;0.73;;;26.40;32.10;;;;;;5095470;28;20107;-73
2022/08/24 07:38:58;;;;;;;0.10;0.10;;;26.30;32.00;;;;;;5099980;28;20107;-74
2022/08/24 07:41:26;;;;;;;4.97;4.68;;;26.40;31.40;;;;;;5098014;28;20042;-73
2022/08/24 07:43:57;;;;;;;0.08;0.08;;;26.50;31.00;;;;;;5094580;28;20031;-73
2022/08/24 07:46:23;;;;;;;0.00;0.00;;;26.40;30.70;;;;;;5093595;28;20042;-74
2022/08/24 07:48:55;;;;;;;0.00;0.00;;;26.70;30.30;;;;;;5092823;28;20032;-75
2022/08/24 07:51:26;;;;;;;0.00;0.00;;;26.70;29.30;;;;;;5093747;28;20031;-75
2022/08/24 07:53:52;;;;;;;0.00;0.00;;;26.80;30.10;;;;;;5092323;28;20016;-75
2022/08/24 07:56:18;;;;;;;0.00;0.00;;;27.10;30.00;;;;;;5093431;27;21267;-75
2022/08/24 07:58:44;;;;;;;0.82;0.68;;;27.30;29.70;;;;;;5092784;28;20469;-75
2022/08/24 08:01:11;;;;;;;1.13;0.73;;;27.20;29.80;;;;;;5095619;28;20023;-74
2022/08/24 08:03:37;;;;;;;0.10;0.10;;;26.90;32.20;;;;;;5092234;28;20106;-75
2022/08/24 08:06:07;;;;;;;0.00;0.00;;;26.60;33.00;;;;;;5094418;28;20378;-74
2022/08/24 08:08:37;;;;;;;3.92;3.72;;;26.70;33.40;;;;;;5097287;28;20034;-74
2022/08/24 08:11:03;;;;;;;0.43;0.43;;;26.90;32.40;;;;;;5094929;28;20032;-75
2022/08/24 08:13:31;;;;;;;0.00;0.00;;;27.10;32.50;;;;;;5095302;28;20362;-75
2022/08/24 08:16:07;;;;;;;0.00;0.00;;;27.20;30.90;;;;;;5094650;28;20028;-76
2022/08/24 08:18:36;;;;;;;0.45;0.17;;;27.10;30.00;;;;;;5093038;28;20378;-75
2022/08/24 08:21:04;;;;;;;0.20;0.03;;;26.90;30.70;;;;;;5089031;28;20386;-75
2022/08/24 08:26:35;;;;;;;0.00;0.00;;;27.30;31.20;;;;;;5067780;28;20043;-74
2022/08/24 08:29:02;;;;;;;0.20;0.10;;;27.50;30.00;;;;;;5070221;28;20044;-75
2022/08/24 08:31:28;;;;;;;2.72;2.17;;;27.50;29.30;;;;;;5079948;27;20431;-73
2022/08/24 08:33:54;;;;;;;0.00;0.00;;;27.50;28.20;;;;;;5090555;28;20028;-73
2022/08/24 08:36:21;;;;;;;0.00;0.00;;;27.80;28.60;;;;;;5099013;28;20508;-74
2022/08/24 08:38:48;;;;;;;0.20;0.20;;;27.60;29.00;;;;;;5096337;27;20129;-74
2022/08/24 08:41:20;;;;;;;0.00;0.00;;;27.70;28.70;;;;;;5097453;28;20473;-74
2022/08/24 08:44:11;;;;;;;0.17;0.15;;;27.90;28.20;;;;;;5089283;28;20031;-75
2022/08/24 08:47:09;;;;;;;0.38;0.15;;;27.80;28.50;;;;;;5102230;28;20111;-73
2022/08/24 08:50:00;;;;;;;0.95;0.95;;;28.10;28.80;;;;;;5087313;28;20494;-75
2022/08/24 08:52:42;;;;;;;0.00;0.00;;;28.20;28.20;;;;;;5096976;28;20019;-75
2022/08/24 08:55:44;;;;;;;1.15;0.60;;;28.40;27.90;;;;;;5092667;28;20112;-73
2022/08/24 08:58:34;;;;;;;8.98;3.03;;;28.40;27.30;;;;;;5087526;28;20034;-75
2022/08/24 09:01:28;;;;;;;0.00;0.00;;;28.30;26.80;;;;;;5092877;28;20107;-75
2022/08/24 09:04:13;;;;;;;0.35;0.35;;;28.30;28.10;;;;;;5089854;28;20513;-75
2022/08/24 09:07:18;;;;;;;0.40;0.40;;;28.40;27.70;;;;;;5096477;28;20457;-74
2022/08/24 09:09:59;;;;;;;0.00;0.00;;;28.40;27.60;;;;;;5089431;28;20090;-75
2022/08/24 09:12:38;;;;;;;0.00;0.00;;;28.40;27.50;;;;;;5085772;28;20032;-75
2022/08/24 09:15:37;;;;;;;2.78;2.28;;;28.40;28.00;;;;;;5095703;28;20423;-75
2022/08/24 09:18:40;;;;;;;0.00;0.00;;;28.30;27.80;;;;;;5094613;28;20380;-75
2022/08/24 09:21:23;;;;;;;2.72;0.95;;;28.40;28.60;;;;;;5097715;28;20035;-75
2022/08/24 09:24:41;;;;;;;0.10;0.10;;;28.60;28.40;;;;;;5097304;28;20016;-75
2022/08/24 09:27:36;;;;;;;1.02;1.02;;;28.30;27.60;;;;;;5080698;28;20542;-77
2022/08/24 09:30:07;;;;;;;0.00;0.00;;;28.40;27.40;;;;;;5092940;28;20038;-75
2022/08/24 09:33:14;;;;;;;0.00;0.00;;;28.50;27.40;;;;;;5092158;28;20021;-76
2022/08/24 09:35:41;;;;;;;1.80;1.75;;;28.70;27.80;;;;;;5091171;28;20047;-75
2022/08/24 09:38:29;;;;;;;0.08;0.08;;;28.70;27.70;;;;;;5096246;28;20031;-75
2022/08/24 09:41:23;;;;;;;0.20;0.20;;;28.50;27.30;;;;;;5092981;28;20484;-75
2022/08/24 09:44:17;;;;;;;0.00;0.00;;;28.40;27.80;;;;;;5086859;28;20028;-75
2022/08/24 09:46:43;;;;;;;0.00;0.00;;;28.40;28.00;;;;;;5087827;28;20012;-74
2022/08/24 09:49:37;;;;;;;2.72;1.88;;;28.50;27.90;;;;;;5094837;28;20019;-75
2022/08/24 09:52:27;;;;;;;0.10;0.10;;;28.40;27.60;;;;;;5092473;28;20020;-74
2022/08/24 09:55:21;;;;;;;0.38;0.38;;;28.50;28.00;;;;;;5090905;28;20111;-77
2022/08/24 09:57:53;;;;;;;0.00;0.00;;;28.50;28.10;;;;;;5094245;28;20374;-75
2022/08/24 10:00:36;;;;;;;0.55;0.30;;;28.30;27.90;;;;;;5093737;28;20056;-76
2022/08/24 10:03:44;;;;;;;0.00;0.00;;;28.30;28.30;;;;;;5094711;28;20028;-75
2022/08/24 10:06:33;;;;;;;0.60;0.60;;;28.10;28.10;;;;;;5091493;28;20024;-73
2022/08/24 10:09:17;;;;;;;0.00;0.00;;;27.90;28.20;;;;;;5100842;28;20024;-75
2022/08/24 10:12:30;;;;;;;0.00;0.00;;;27.90;28.60;;;;;;5093987;28;20028;-76
2022/08/24 10:15:40;;;;;;;0.00;0.00;;;28.10;28.60;;;;;;5098517;28;20020;-75
2022/08/24 10:18:36;;;;;;;0.90;0.30;;;28.20;28.10;;;;;;5098316;28;20047;-74
2022/08/24 10:21:19;;;;;;;0.00;0.00;;;28.20;29.20;;;;;;5095544;28;20175;-75
2022/08/24 10:24:17;;;;;;;0.00;0.00;;;28.10;28.90;;;;;;5096623;28;20385;-75
2022/08/24 10:27:26;;;;;;;0.00;0.00;;;28.30;29.00;;;;;;5073299;28;20028;-73
2022/08/24 10:30:17;;;;;;;0.10;0.10;;;28.40;28.40;;;;;;5086410;28;20534;-75
2022/08/24 10:33:18;;;;;;;0.00;0.00;;;28.30;28.30;;;;;;5094407;28;20024;-73
2022/08/24 10:36:02;;;;;;;0.00;0.00;;;28.00;28.60;;;;;;5094751;28;20056;-73
2022/08/24 10:41:50;;;;;;;0.00;0.00;;;27.70;29.30;;;;;;5091236;28;20496;-74
2022/08/24 10:44:44;;;;;;;0.00;0.00;;;27.80;29.40;;;;;;5096651;28;20422;-73
2022/08/24 10:47:27;;;;;;;0.20;0.20;;;28.00;29.50;;;;;;5093195;28;20223;-74
2022/08/24 10:50:17;;;;;;;5.78;1.95;;;28.00;29.00;;;;;;5094802;28;20373;-75
2022/08/24 10:53:06;;;;;;;0.00;0.00;;;28.00;28.70;;;;;;5096228;28;20020;-74
2022/08/24 10:55:34;;;;;;;0.00;0.00;;;27.90;29.00;;;;;;5090475;28;20042;-75
2022/08/24 10:58:23;;;;;;;0.00;0.00;;;27.80;29.00;;;;;;5094174;28;20035;-74
2022/08/24 11:00:50;;;;;;;0.05;0.05;;;27.80;29.00;;;;;;5094898;28;20115;-74
2022/08/24 11:03:22;;;;;;;0.00;0.00;;;27.80;29.30;;;;;;5096729;27;20027;-75
2022/08/24 11:05:53;;;;;;;0.00;0.00;;;27.70;29.40;;;;;;5099663;28;20485;-73
2022/08/24 11:08:22;;;;;;;0.00;0.00;;;27.80;29.40;;;;;;5102743;28;20130;-73
2022/08/24 11:11:10;;;;;;;0.00;0.00;;;27.90;29.80;;;;;;5096276;28;20204;-75
2022/08/24 11:13:48;;;;;;;0.00;0.00;;;27.80;29.20;;;;;;5096747;28;20024;-74
2022/08/24 11:16:24;;;;;;;0.00;0.00;;;27.60;29.20;;;;;;5096762;28;20016;-73
2022/08/24 11:18:56;;;;;;;0.00;0.00;;;27.50;29.90;;;;;;5098523;28;21503;-73
2022/08/24 11:21:48;;;;;;;0.80;0.80;;;27.50;30.10;;;;;;5095072;28;20036;-73
2022/08/24 11:24:25;;;;;;;0.10;0.10;;;27.50;29.70;;;;;;5099169;27;20048;-74
2022/08/24 11:26:54;;;;;;;0.00;0.00;;;27.60;29.00;;;;;;5094127;28;20073;-74
2022/08/24 11:29:22;;;;;;;0.10;0.10;;;27.60;29.30;;;;;;5096344;28;20078;-75
2022/08/24 11:31:51;;;;;;;0.00;0.00;;;27.50;29.40;;;;;;5103562;28;20028;-75
2022/08/24 11:34:30;;;;;;;1.35;1.30;;;27.50;30.00;;;;;;5098890;28;20100;-74
2022/08/24 11:36:59;;;;;;;0.00;0.00;;;27.50;29.90;;;;;;5095110;27;20066;-75
2022/08/24 11:39:29;;;;;;;0.00;0.00;;;27.40;29.90;;;;;;5094665;28;20023;-74
2022/08/24 11:42:14;;;;;;;0.00;0.00;;;27.30;29.60;;;;;;5091942;28;20500;-73
2022/08/24 11:45:27;;;;;;;0.03;0.03;;;27.30;30.00;;;;;;5095896;28;20039;-74
2022/08/24 11:48:17;;;;;;;0.00;0.00;;;27.30;29.90;;;;;;5072632;28;20090;-74
2022/08/24 11:50:56;;;;;;;0.00;0.00;;;27.40;29.70;;;;;;5095075;28;20118;-75
2022/08/24 11:53:33;;;;;;;0.00;0.00;;;27.40;30.20;;;;;;5098544;28;20108;-73
2022/08/24 11:56:27;;;;;;;0.00;0.00;;;27.40;30.60;;;;;;5095494;28;20028;-74
2022/08/24 11:58:53;;;;;;;0.00;0.00;;;27.30;30.20;;;;;;5095236;28;20122;-73
2022/08/24 12:01:28;;;;;;;0.00;0.00;;;27.30;30.40;;;;;;5098786;28;20023;-74
2022/08/24 12:04:00;;;;;;;0.00;0.00;;;27.30;30.40;;;;;;5096116;28;20088;-73
2022/08/24 12:06:34;;;;;;;0.20;0.20;;;27.30;30.60;;;;;;5097139;28;20034;-73
2022/08/24 12:09:21;;;;;;;0.00;0.00;;;27.40;30.30;;;;;;5092741;28;20031;-74
2022/08/24 12:12:13;;;;;;;0.00;0.00;;;27.40;30.30;;;;;;5092279;28;20054;-74
2022/08/24 12:14:43;;;;;;;0.00;0.00;;;27.20;30.40;;;;;;5099401;28;20012;-73
2022/08/24 12:17:27;;;;;;;0.00;0.00;;;27.10;30.80;;;;;;5097263;28;20456;-75
2022/08/24 12:20:02;;;;;;;0.00;0.00;;;27.10;30.20;;;;;;5097747;28;20035;-76
2022/08/24 12:22:30;;;;;;;0.00;0.00;;;27.20;30.00;;;;;;5092665;28;20153;-73
2022/08/24 12:24:59;;;;;;;0.00;0.00;;;27.20;30.00;;;;;;5093638;28;20023;-73
2022/08/24 12:27:32;;;;;;;0.00;0.00;;;27.10;29.80;;;;;;5092003;28;20115;-73
2022/08/24 12:30:03;;;;;;;0.10;0.10;;;27.00;29.60;;;;;;5093746;28;20059;-75
2022/08/24 12:32:48;;;;;;;0.00;0.00;;;27.00;30.00;;;;;;5095091;28;20262;-74
2022/08/24 12:35:31;;;;;;;0.00;0.00;;;26.90;29.60;;;;;;5095709;28;20024;-74
2022/08/24 12:38:12;;;;;;;0.00;0.00;;;26.80;29.90;;;;;;5100080;28;20106;-74
2022/08/24 12:41:13;;;;;;;0.00;0.00;;;26.80;30.00;;;;;;5100405;28;20288;-75
2022/08/24 12:43:50;;;;;;;0.00;0.00;;;26.80;30.00;;;;;;5096445;28;20059;-74
2022/08/24 12:46:24;;;;;;;0.00;0.00;;;26.70;29.90;;;;;;5100868;28;20024;-74
2022/08/24 12:49:01;;;;;;;0.30;0.30;;;26.70;30.10;;;;;;5096069;28;20038;-75
2022/08/24 12:51:59;;;;;;;0.00;0.00;;;26.70;30.00;;;;;;5095449;28;20024;-73
2022/08/24 12:55:00;;;;;;;0.00;0.00;;;26.50;29.90;;;;;;5097227;28;20089;-75
2022/08/24 12:57:27;;;;;;;0.00;0.00;;;26.40;30.00;;;;;;5100074;28;20027;-75
2022/08/24 12:59:56;;;;;;;0.00;0.00;;;26.40;29.90;;;;;;5097378;28;20064;-74
2022/08/24 13:02:23;;;;;;;0.00;0.00;;;26.40;30.00;;;;;;5099572;28;20522;-74
2022/08/24 13:04:49;;;;;;;0.00;0.00;;;26.30;30.00;;;;;;5097344;28;20027;-74
2022/08/24 13:07:18;;;;;;;0.00;0.00;;;26.40;30.00;;;;;;5101280;28;20035;-74
2022/08/24 13:09:56;;;;;;;0.00;0.00;;;26.40;30.00;;;;;;5096683;28;20027;-74
2022/08/24 13:12:40;;;;;;;0.00;0.00;;;26.30;30.00;;;;;;5095139;28;20065;-74
2022/08/24 13:15:24;;;;;;;0.00;0.00;;;26.20;30.00;;;;;;5100117;28;20149;-75
2022/08/24 13:18:08;;;;;;;0.00;0.00;;;26.20;29.90;;;;;;5099347;28;20027;-75
2022/08/24 13:20:34;;;;;;;0.00;0.00;;;26.30;30.20;;;;;;5096086;28;20024;-74
2022/08/24 13:23:17;;;;;;;0.40;0.40;;;26.30;30.00;;;;;;5097692;28;20434;-73
2022/08/24 13:25:46;;;;;;;0.65;0.65;;;26.20;29.90;;;;;;5100727;28;20038;-74
2022/08/24 13:28:21;;;;;;;0.85;0.85;;;26.20;30.20;;;;;;5097862;28;20024;-74